Time;durP1;ratioP1;P1;durP2;ratioP2;P2;SDS_P1;SDS_P2;PMS_P1;PMS_P2;Temp;Humidity;BMP_temperature;BMP_pressure;BME280_temperature;BME280_humidity;BME280_pressure;Samples;Min_cycle;Max_cycle;Signal;HPM_P1;HPM_P2
2021/07/07 00:00:23;;;;;;;;;10.00;7.25;;;;;19.80;49.73;100741.19;5106035;27;45330;-46
2021/07/07 00:02:49;;;;;;;;;9.00;7.00;;;;;19.78;49.11;100751.06;5104984;27;45343;-47
2021/07/07 00:05:15;;;;;;;;;3.50;2.75;;;;;19.73;49.20;100739.78;5106377;27;45556;-45
2021/07/07 00:07:42;;;;;;;;;4.75;4.75;;;;;19.59;49.51;100740.50;5104824;27;47249;-47
2021/07/07 00:10:11;;;;;;;;;4.50;2.75;;;;;19.62;49.96;100756.38;5106328;27;45246;-47
2021/07/07 00:12:37;;;;;;;;;5.25;3.25;;;;;19.60;49.93;100760.06;5105933;27;46168;-46
2021/07/07 00:15:09;;;;;;;;;7.00;4.00;;;;;19.56;49.85;100761.13;5087749;27;45427;-46
2021/07/07 00:17:35;;;;;;;;;3.25;3.25;;;;;19.54;49.61;100763.03;5105940;27;46491;-47
2021/07/07 00:20:00;;;;;;;;;6.75;3.75;;;;;19.44;50.17;100752.81;5105841;27;45396;-47
2021/07/07 00:22:26;;;;;;;;;7.75;4.00;;;;;19.46;50.39;100758.09;5106181;27;45276;-46
2021/07/07 00:24:51;;;;;;;;;5.25;3.75;;;;;19.42;49.76;100757.38;5106116;27;45349;-47
2021/07/07 00:27:16;;;;;;;;;6.25;4.00;;;;;19.39;50.22;100760.19;5086739;27;45390;-45
2021/07/07 00:29:43;;;;;;;;;3.00;3.00;;;;;19.33;50.24;100755.19;5105969;27;45259;-45
2021/07/07 00:32:09;;;;;;;;;3.25;3.25;;;;;19.31;50.38;100762.41;5087053;27;45344;-46
2021/07/07 00:34:34;;;;;;;;;4.00;3.00;;;;;19.29;50.15;100764.28;5105910;27;45478;-50
2021/07/07 00:37:00;;;;;;;;;2.50;2.25;;;;;19.26;50.50;100769.75;5085049;27;45909;-44
2021/07/07 00:39:25;;;;;;;;;4.00;4.00;;;;;19.25;50.41;100768.03;5102544;27;45349;-46
2021/07/07 00:41:50;;;;;;;;;5.25;3.00;;;;;19.20;50.66;100759.41;5102403;27;45215;-46
2021/07/07 00:44:16;;;;;;;;;5.50;4.00;;;;;19.16;50.88;100764.88;5102391;27;45240;-47
2021/07/07 00:46:45;;;;;;;;;3.00;3.00;;;;;19.13;50.90;100770.38;5102259;27;46160;-45
2021/07/07 00:49:13;;;;;;;;;3.00;2.75;;;;;19.11;50.48;100768.72;5102574;27;45505;-49
2021/07/07 00:51:38;;;;;;;;;5.00;3.00;;;;;19.05;50.91;100766.38;5102169;27;45433;-48
2021/07/07 00:54:06;;;;;;;;;3.25;3.25;;;;;18.98;50.71;100763.13;5102253;27;45257;-45
2021/07/07 00:56:35;;;;;;;;;3.50;2.00;;;;;18.98;50.87;100766.66;5101901;27;46253;-46
2021/07/07 00:59:02;;;;;;;;;4.50;3.00;;;;;18.94;51.04;100762.44;5101793;27;45389;-45
2021/07/07 01:01:28;;;;;;;;;4.25;4.25;;;;;18.89;51.28;100750.25;5102007;27;45311;-49
2021/07/07 01:03:53;;;;;;;;;5.25;4.00;;;;;18.90;51.00;100763.50;5102049;27;45324;-46
2021/07/07 01:06:18;;;;;;;;;4.75;4.75;;;;;18.86;51.27;100763.72;5101955;27;45282;-47
2021/07/07 01:08:44;;;;;;;;;4.00;4.00;;;;;18.86;51.31;100766.38;5080339;28;46012;-46
2021/07/07 01:11:09;;;;;;;;;4.50;3.50;;;;;18.83;51.25;100759.41;5099481;27;45281;-47
2021/07/07 01:13:37;;;;;;;;;5.00;3.75;;;;;18.81;51.08;100767.44;5101625;27;45250;-47
2021/07/07 01:16:03;;;;;;;;;4.00;4.00;;;;;18.80;51.51;100767.53;5101523;27;45282;-46
2021/07/07 01:18:29;;;;;;;;;5.00;5.00;;;;;18.79;51.02;100774.66;5101671;27;45382;-47
2021/07/07 01:20:54;;;;;;;;;8.00;3.00;;;;;18.77;51.16;100778.31;5101539;27;45291;-47
2021/07/07 01:23:19;;;;;;;;;4.00;2.75;;;;;18.77;51.45;100773.00;5101925;27;45535;-45
2021/07/07 01:25:45;;;;;;;;;6.75;4.00;;;;;18.68;51.40;100769.84;5101536;27;46406;-49
2021/07/07 01:28:10;;;;;;;;;5.50;4.00;;;;;18.68;51.66;100767.16;5101660;27;45434;-45
2021/07/07 01:30:35;;;;;;;;;4.00;3.00;;;;;18.69;51.61;100770.69;5101716;27;45334;-46
2021/07/07 01:33:01;;;;;;;;;4.00;4.00;;;;;18.63;51.45;100766.53;5101754;27;45347;-45
2021/07/07 01:35:27;;;;;;;;;3.00;3.00;;;;;18.66;51.38;100773.50;5101272;27;47185;-44
2021/07/07 01:37:53;;;;;;;;;3.50;3.00;;;;;18.65;51.47;100772.66;5101847;27;45319;-46
2021/07/07 01:40:21;;;;;;;;;6.25;4.00;;;;;18.65;51.61;100769.13;5101446;27;45521;-45
2021/07/07 01:42:47;;;;;;;;;2.50;2.00;;;;;18.65;51.88;100772.66;5101270;27;45348;-47
2021/07/07 01:45:14;;;;;;;;;6.25;4.75;;;;;18.62;51.64;100771.94;5101393;27;45279;-45
2021/07/07 01:47:40;;;;;;;;;4.00;4.00;;;;;18.57;51.76;100768.63;5101425;27;45244;-45
2021/07/07 01:50:08;;;;;;;;;5.00;3.00;;;;;18.52;52.01;100767.03;5100179;27;45348;-44
2021/07/07 01:52:33;;;;;;;;;4.25;3.00;;;;;18.49;52.13;100766.34;5101524;27;45300;-48
2021/07/07 01:55:00;;;;;;;;;6.25;3.25;;;;;18.46;51.63;100762.00;5100946;27;45290;-47
2021/07/07 01:57:26;;;;;;;;;5.25;3.75;;;;;18.43;52.04;100775.44;5079132;28;45900;-46
2021/07/07 01:59:51;;;;;;;;;3.00;3.00;;;;;18.39;52.05;100773.00;5097619;27;45294;-47
2021/07/07 02:02:16;;;;;;;;;3.00;3.00;;;;;18.38;52.07;100766.81;5101370;27;45240;-50
2021/07/07 02:04:42;;;;;;;;;3.00;3.00;;;;;18.33;52.33;100767.03;5100991;27;46067;-46
2021/07/07 02:07:07;;;;;;;;;3.00;3.00;;;;;18.29;52.26;100764.59;5101417;27;45405;-46
2021/07/07 02:09:32;;;;;;;;;5.50;3.00;;;;;18.27;52.27;100767.31;5101159;27;45181;-46
2021/07/07 02:11:58;;;;;;;;;3.50;3.00;;;;;18.26;52.52;100762.91;5101001;27;45516;-45
2021/07/07 02:14:24;;;;;;;;;2.75;2.25;;;;;18.23;52.43;100764.88;5100374;27;45493;-48
2021/07/07 02:16:49;;;;;;;;;4.75;3.75;;;;;18.17;52.32;100771.31;5101024;27;45293;-46
2021/07/07 02:19:14;;;;;;;;;3.25;2.00;;;;;18.14;52.45;100767.00;5100826;27;45469;-46
2021/07/07 02:21:40;;;;;;;;;5.50;4.00;;;;;18.10;52.62;100775.19;5100824;27;45232;-46
2021/07/07 02:24:06;;;;;;;;;3.25;3.00;;;;;18.11;52.65;100768.94;5100771;27;45529;-45
2021/07/07 02:26:32;;;;;;;;;4.75;3.00;;;;;18.06;52.66;100761.16;5100882;27;45460;-46
2021/07/07 02:28:57;;;;;;;;;4.00;3.75;;;;;18.07;52.81;100760.25;5100431;27;45378;-47
2021/07/07 02:31:23;;;;;;;;;3.75;3.75;;;;;18.03;52.68;100770.16;5082226;27;45509;-48
2021/07/07 02:33:49;;;;;;;;;6.00;3.00;;;;;18.00;52.85;100772.09;5100649;27;45285;-48
2021/07/07 02:36:14;;;;;;;;;3.50;2.00;;;;;17.99;53.04;100776.53;5100602;27;45394;-44
2021/07/07 02:38:39;;;;;;;;;3.75;2.75;;;;;17.99;52.91;100775.69;5100586;27;45644;-44
2021/07/07 02:41:05;;;;;;;;;2.25;2.25;;;;;17.94;52.88;100775.88;5100598;27;45493;-46
2021/07/07 02:43:30;;;;;;;;;5.00;4.50;;;;;17.93;53.19;100765.28;5100113;27;45436;-47
2021/07/07 02:45:56;;;;;;;;;4.00;2.00;;;;;17.93;53.28;100776.78;5100518;27;45231;-46
2021/07/07 02:48:22;;;;;;;;;3.75;2.00;;;;;17.93;53.07;100781.25;5100658;27;45408;-48
2021/07/07 02:50:47;;;;;;;;;4.50;3.00;;;;;17.92;53.24;100777.72;5100472;27;45218;-45
2021/07/07 02:53:14;;;;;;;;;5.00;5.00;;;;;17.93;53.44;100782.09;5100153;27;45366;-45
2021/07/07 02:55:40;;;;;;;;;2.00;2.00;;;;;17.88;53.10;100778.78;5100495;27;45400;-46
2021/07/07 02:58:06;;;;;;;;;4.75;4.00;;;;;17.89;53.63;100782.31;5099969;27;45332;-46
2021/07/07 03:00:41;;;;;;;;;5.25;3.25;;;;;17.87;53.41;100779.72;5099702;27;45548;-47
2021/07/07 03:03:11;;;;;;;;;3.75;2.00;;;;;17.82;53.40;100781.72;5100094;27;46320;-46
2021/07/07 03:05:39;;;;;;;;;4.00;4.00;;;;;17.81;53.34;100772.88;5100035;27;45330;-44
2021/07/07 03:08:05;;;;;;;;;4.25;4.25;;;;;17.78;53.45;100769.50;5100207;27;45232;-50
2021/07/07 03:10:30;;;;;;;;;3.00;3.00;;;;;17.76;53.55;100780.19;5100034;27;45177;-48
2021/07/07 03:12:56;;;;;;;;;6.50;5.00;;;;;17.76;53.58;100781.97;5099370;27;46054;-44
2021/07/07 03:15:23;;;;;;;;;4.00;2.75;;;;;17.75;53.60;100785.56;5099904;27;45326;-45
2021/07/07 03:17:48;;;;;;;;;3.75;2.75;;;;;17.70;53.76;100783.13;5100063;27;45342;-44
2021/07/07 03:20:14;;;;;;;;;6.75;3.75;;;;;17.65;53.55;100785.97;5099718;27;45684;-49
2021/07/07 03:22:39;;;;;;;;;5.50;3.00;;;;;17.68;53.34;100783.19;5099796;27;45963;-48
2021/07/07 03:25:06;;;;;;;;;3.75;3.25;;;;;17.69;53.73;100787.56;5099871;27;45518;-45
2021/07/07 03:27:31;;;;;;;;;6.50;5.50;;;;;17.68;53.76;100788.50;5099590;27;45174;-48
2021/07/07 03:29:56;;;;;;;;;3.25;3.25;;;;;17.70;53.88;100791.09;5099812;27;45361;-45
2021/07/07 03:32:22;;;;;;;;;6.00;3.00;;;;;17.68;53.96;100792.94;5099818;27;45379;-45
2021/07/07 03:34:47;;;;;;;;;9.25;3.75;;;;;17.66;53.94;100789.47;5099931;27;45236;-45
2021/07/07 03:37:12;;;;;;;;;2.50;2.50;;;;;17.62;54.25;100788.78;5099832;27;45228;-45
2021/07/07 03:39:38;;;;;;;;;6.25;6.25;;;;;17.62;54.25;100798.50;5099862;27;45562;-48
2021/07/07 03:42:03;;;;;;;;;3.25;3.25;;;;;17.62;54.16;100790.53;5099374;27;46031;-45
2021/07/07 03:44:28;;;;;;;;;5.75;3.75;;;;;17.62;54.37;100798.50;5099458;27;45244;-46
2021/07/07 03:46:54;;;;;;;;;3.25;3.25;;;;;17.61;54.44;100795.00;5099813;27;45349;-48
2021/07/07 03:49:19;;;;;;;;;4.00;4.00;;;;;17.55;54.31;100805.91;5099843;27;45189;-45
2021/07/07 03:51:44;;;;;;;;;4.25;4.00;;;;;17.47;54.58;100797.38;5099441;27;45186;-45
2021/07/07 03:54:11;;;;;;;;;7.00;6.00;;;;;17.53;54.73;100805.09;5099648;27;45299;-46
2021/07/07 03:56:36;;;;;;;;;4.75;4.00;;;;;17.51;54.51;100809.63;5099494;27;45332;-46
2021/07/07 03:59:02;;;;;;;;;4.25;4.00;;;;;17.51;54.65;100815.78;5099345;27;45533;-46
2021/07/07 04:01:27;;;;;;;;;4.00;4.00;;;;;17.50;54.59;100806.06;5099555;27;46224;-48
2021/07/07 04:03:52;;;;;;;;;7.00;5.25;;;;;17.51;54.60;100821.09;5099539;27;45324;-46
2021/07/07 04:06:17;;;;;;;;;6.25;3.50;;;;;17.52;54.40;100813.97;5081235;27;45350;-48
2021/07/07 04:08:43;;;;;;;;;4.75;3.75;;;;;17.52;54.65;100820.16;5099534;27;45314;-48
2021/07/07 04:11:08;;;;;;;;;8.00;6.25;;;;;17.51;54.52;100818.44;5099257;27;46107;-49
2021/07/07 04:13:33;;;;;;;;;9.00;6.75;;;;;17.51;54.71;100821.09;5102129;27;45657;-47
2021/07/07 04:15:59;;;;;;;;;5.00;5.00;;;;;17.52;54.55;100821.94;5102787;27;45283;-49
2021/07/07 04:18:24;;;;;;;;;7.00;7.00;;;;;17.53;54.54;100827.22;5102633;27;45302;-46
2021/07/07 04:20:50;;;;;;;;;6.00;6.00;;;;;17.55;54.51;100829.81;5102722;27;45335;-48
2021/07/07 04:23:15;;;;;;;;;10.50;8.00;;;;;17.54;54.47;100828.94;5102899;27;45291;-46
2021/07/07 04:25:41;;;;;;;;;5.00;5.00;;;;;17.56;54.67;100831.53;5102668;27;45402;-45
2021/07/07 04:28:07;;;;;;;;;5.25;4.00;;;;;17.57;54.68;100840.38;5102607;27;45346;-46
2021/07/07 04:30:33;;;;;;;;;6.00;4.75;;;;;17.58;54.62;100845.59;5102518;27;46537;-45
2021/07/07 04:32:59;;;;;;;;;4.50;3.75;;;;;17.59;54.61;100846.50;5102649;27;45243;-45
2021/07/07 04:35:25;;;;;;;;;5.00;4.25;;;;;17.59;54.65;100850.00;5102515;27;45169;-49
2021/07/07 04:37:50;;;;;;;;;7.00;6.50;;;;;17.62;54.79;100851.66;5102879;27;45425;-47
2021/07/07 04:40:18;;;;;;;;;5.25;5.25;;;;;17.62;54.80;100860.50;5102253;27;45377;-47
2021/07/07 04:42:43;;;;;;;;;7.50;4.75;;;;;17.62;54.72;100852.53;5102175;27;45347;-48
2021/07/07 04:45:10;;;;;;;;;5.00;3.00;;;;;17.66;54.73;100855.91;5102293;27;45530;-46
2021/07/07 04:47:37;;;;;;;;;5.50;4.75;;;;;17.67;54.78;100858.53;5102635;27;45321;-49
2021/07/07 04:50:11;;;;;;;;;5.75;5.00;;;;;17.71;55.01;100861.91;5101933;27;46156;-47
2021/07/07 04:52:37;;;;;;;;;5.25;5.00;;;;;17.73;54.97;100865.34;5080600;28;45244;-45
2021/07/07 04:55:05;;;;;;;;;5.25;5.25;;;;;17.75;54.70;100859.97;5099840;27;45252;-46
2021/07/07 04:57:40;;;;;;;;;4.50;4.00;;;;;17.76;54.91;100864.38;5101776;27;45419;-50
2021/07/07 05:00:08;;;;;;;;;5.00;4.50;;;;;17.77;54.87;100866.94;5101779;27;46385;-46
2021/07/07 05:02:33;;;;;;;;;6.00;5.00;;;;;17.78;54.82;100860.72;5102274;27;45342;-45
2021/07/07 05:04:59;;;;;;;;;5.75;4.50;;;;;17.81;55.01;100879.19;5083635;27;45335;-48
2021/07/07 05:07:24;;;;;;;;;5.50;5.00;;;;;17.83;54.90;100872.00;5102167;27;45273;-46
2021/07/07 05:09:49;;;;;;;;;8.75;5.00;;;;;17.85;54.88;100875.47;5101693;27;46823;-45
2021/07/07 05:12:15;;;;;;;;;6.25;5.75;;;;;17.87;54.83;100878.94;5079806;28;45397;-44
2021/07/07 05:14:40;;;;;;;;;6.25;6.00;;;;;17.88;55.15;100879.78;5100460;27;45430;-44
2021/07/07 05:17:05;;;;;;;;;5.25;5.00;;;;;17.90;54.89;100875.28;5100524;27;45324;-46
2021/07/07 05:19:31;;;;;;;;;8.00;8.00;;;;;17.97;54.96;100883.88;5101458;27;46144;-44
2021/07/07 05:21:56;;;;;;;;;7.00;6.00;;;;;17.99;54.92;100892.69;5101788;27;45215;-45
2021/07/07 05:24:21;;;;;;;;;6.25;6.00;;;;;18.00;55.08;100889.09;5083040;27;45421;-44
2021/07/07 05:26:47;;;;;;;;;7.25;6.00;;;;;18.05;54.97;100897.72;5084732;27;45253;-44
2021/07/07 05:29:14;;;;;;;;;6.00;4.25;;;;;18.07;54.97;100895.84;5087983;27;45448;-45
2021/07/07 05:31:39;;;;;;;;;4.00;4.00;;;;;18.10;55.35;100890.41;5083847;27;45409;-46
2021/07/07 05:34:05;;;;;;;;;5.00;4.00;;;;;18.12;55.26;100900.97;5087612;27;45250;-45
2021/07/07 05:36:30;;;;;;;;;4.50;4.00;;;;;18.13;55.16;100890.28;5093848;27;45364;-47
2021/07/07 05:38:55;;;;;;;;;5.75;5.75;;;;;18.14;55.38;100889.34;5086787;27;45280;-45
2021/07/07 05:41:21;;;;;;;;;7.50;3.25;;;;;18.17;55.25;100891.84;5083235;27;45586;-45
2021/07/07 05:43:47;;;;;;;;;6.50;5.25;;;;;18.21;55.42;100902.38;5082345;27;45244;-46
2021/07/07 05:46:12;;;;;;;;;3.75;3.75;;;;;18.22;55.37;100906.78;5093097;27;45303;-45
2021/07/07 05:48:37;;;;;;;;;7.25;6.25;;;;;18.24;55.53;100904.88;5087194;27;45469;-48
2021/07/07 05:51:04;;;;;;;;;5.75;4.00;;;;;18.23;55.83;100904.03;5082774;27;45410;-45
2021/07/07 05:53:29;;;;;;;;;5.75;5.25;;;;;18.25;55.68;100909.28;5082760;27;45339;-48
2021/07/07 05:55:55;;;;;;;;;4.50;4.50;;;;;18.26;55.80;100911.00;5063343;28;45604;-49
2021/07/07 05:58:20;;;;;;;;;5.75;4.00;;;;;18.29;55.67;100906.44;5081836;27;46061;-47
2021/07/07 06:00:46;;;;;;;;;4.75;3.75;;;;;18.32;55.78;100905.44;5093162;27;45400;-45
2021/07/07 06:03:11;;;;;;;;;4.75;4.75;;;;;18.32;55.68;100897.44;5087491;27;45280;-45
2021/07/07 06:05:37;;;;;;;;;6.00;2.75;;;;;18.35;55.74;100910.59;5070117;28;45356;-45
2021/07/07 06:08:02;;;;;;;;;6.25;4.00;;;;;18.38;55.69;100910.47;5092384;27;47330;-46
2021/07/07 06:10:28;;;;;;;;;7.00;6.25;;;;;18.39;55.83;100912.22;5081594;27;45266;-47
2021/07/07 06:12:55;;;;;;;;;5.75;4.25;;;;;18.43;56.24;100912.94;5093721;27;45410;-45
2021/07/07 06:15:21;;;;;;;;;5.75;5.25;;;;;18.49;55.82;100913.53;5086723;27;45442;-45
2021/07/07 06:17:47;;;;;;;;;5.00;5.00;;;;;18.51;55.90;100914.34;5099522;27;45276;-45
2021/07/07 06:20:14;;;;;;;;;5.50;4.50;;;;;18.54;56.06;100916.00;5087437;27;45469;-44
2021/07/07 06:22:41;;;;;;;;;6.00;4.50;;;;;18.60;55.81;100917.50;5099444;27;45429;-47
2021/07/07 06:25:08;;;;;;;;;5.00;5.00;;;;;18.61;56.21;100911.25;5083125;27;45208;-44
2021/07/07 06:27:36;;;;;;;;;7.75;5.75;;;;;18.60;56.12;100921.03;5094422;27;47605;-45
2021/07/07 06:30:04;;;;;;;;;7.50;6.25;;;;;18.61;56.54;100920.09;5094454;27;45385;-46
2021/07/07 06:32:30;;;;;;;;;7.00;6.25;;;;;18.62;56.53;100928.94;5087746;27;45357;-44
2021/07/07 06:35:00;;;;;;;;;5.00;4.25;;;;;18.64;56.69;100924.41;5099666;27;45433;-48
2021/07/07 06:37:26;;;;;;;;;6.00;4.75;;;;;18.64;56.51;100925.28;5073378;28;47039;-45
2021/07/07 06:39:51;;;;;;;;;9.00;7.00;;;;;18.62;56.67;100926.28;5090072;27;45455;-45
2021/07/07 06:42:17;;;;;;;;;7.00;5.50;;;;;18.62;56.32;100924.47;5098485;27;45371;-47
2021/07/07 06:44:42;;;;;;;;;9.25;7.75;;;;;18.65;56.66;100928.78;5100226;27;45480;-48
2021/07/07 06:47:07;;;;;;;;;6.25;6.25;;;;;18.68;56.68;100939.31;5100142;27;46102;-44
2021/07/07 06:49:33;;;;;;;;;3.50;3.50;;;;;18.67;56.98;100938.44;5090484;27;45397;-44
2021/07/07 06:51:58;;;;;;;;;7.00;7.00;;;;;18.68;56.73;100944.66;5100153;27;45224;-45
2021/07/07 06:54:23;;;;;;;;;8.50;7.50;;;;;18.71;56.58;100949.81;5099895;27;45440;-45
2021/07/07 06:56:49;;;;;;;;;8.00;7.25;;;;;18.69;56.87;100951.66;5078725;27;46066;-45
2021/07/07 06:59:14;;;;;;;;;10.00;6.50;;;;;18.67;56.74;100943.75;5099824;27;45271;-46
2021/07/07 07:01:39;;;;;;;;;8.75;7.50;;;;;18.70;56.90;100956.06;5078314;27;45503;-46
2021/07/07 07:04:05;;;;;;;;;8.00;6.00;;;;;18.71;56.67;100954.28;5074396;27;45513;-44
2021/07/07 07:06:30;;;;;;;;;8.75;8.75;;;;;18.72;56.50;100959.53;5099912;27;47125;-45
2021/07/07 07:08:55;;;;;;;;;11.75;8.00;;;;;18.74;56.47;100952.34;5080830;27;45316;-45
2021/07/07 07:11:21;;;;;;;;;7.00;5.00;;;;;18.75;56.71;100954.06;5100015;27;45359;-47
2021/07/07 07:13:46;;;;;;;;;7.25;6.25;;;;;18.74;56.72;100949.69;5099027;27;45521;-46
2021/07/07 07:16:13;;;;;;;;;9.00;8.00;;;;;18.79;56.54;100962.78;5098751;27;45327;-47
2021/07/07 07:18:39;;;;;;;;;8.75;6.75;;;;;18.78;56.70;100961.94;5097645;27;45349;-45
2021/07/07 07:21:05;;;;;;;;;9.25;8.00;;;;;18.80;56.50;100965.38;5098438;27;45350;-45
2021/07/07 07:23:30;;;;;;;;;8.75;7.50;;;;;18.81;56.67;100964.44;5099537;27;45416;-46
2021/07/07 07:25:56;;;;;;;;;7.00;6.00;;;;;18.82;56.46;100968.81;5089001;27;45897;-45
2021/07/07 07:28:21;;;;;;;;;10.00;7.75;;;;;18.80;56.62;100964.50;5094871;27;45438;-45
2021/07/07 07:30:46;;;;;;;;;5.75;5.50;;;;;18.82;56.75;100967.97;5098411;27;45351;-44
2021/07/07 07:33:12;;;;;;;;;6.75;5.75;;;;;18.84;56.57;100976.75;5099779;27;45259;-45
2021/07/07 07:35:38;;;;;;;;;9.00;7.00;;;;;18.86;56.57;100974.03;5099330;27;45980;-45
2021/07/07 07:38:05;;;;;;;;;9.25;8.25;;;;;18.89;56.78;100968.56;5081251;27;45346;-46
2021/07/07 07:40:37;;;;;;;;;7.50;6.75;;;;;18.92;56.76;100984.44;5099473;27;45304;-44
2021/07/07 07:43:05;;;;;;;;;7.50;7.00;;;;;18.93;56.86;100976.38;5099064;27;45768;-44
2021/07/07 07:45:30;;;;;;;;;10.25;8.75;;;;;18.95;56.74;100976.28;5089762;27;46930;-45
2021/07/07 07:47:56;;;;;;;;;4.75;4.75;;;;;19.02;56.45;100975.09;5103155;27;45442;-46
2021/07/07 07:50:22;;;;;;;;;7.50;6.25;;;;;19.02;56.86;100972.44;5103391;27;45296;-49
2021/07/07 07:52:47;;;;;;;;;6.75;5.75;;;;;19.08;56.29;100977.47;5102580;27;45341;-47
2021/07/07 07:55:13;;;;;;;;;7.75;6.50;;;;;19.12;56.42;100991.53;5093301;27;45189;-49
2021/07/07 07:57:40;;;;;;;;;5.75;5.75;;;;;19.13;56.47;100985.22;5094914;27;45366;-46
2021/07/07 08:00:13;;;;;;;;;12.25;7.50;;;;;19.21;56.35;100987.56;5093390;27;45248;-45
2021/07/07 08:02:39;;;;;;;;;6.00;6.00;;;;;19.24;56.63;100985.59;5102909;27;45461;-49
2021/07/07 08:05:05;;;;;;;;;6.00;6.00;;;;;19.24;56.17;100990.06;5102906;27;45224;-49
2021/07/07 08:07:32;;;;;;;;;9.00;6.25;;;;;19.25;56.48;100997.13;5102615;27;45402;-49
2021/07/07 08:09:57;;;;;;;;;5.75;5.75;;;;;19.25;56.05;100995.31;5101486;27;45480;-48
2021/07/07 08:12:23;;;;;;;;;7.00;6.25;;;;;19.29;56.05;100998.72;5102932;27;45335;-50
2021/07/07 08:14:51;;;;;;;;;7.25;6.00;;;;;19.31;56.36;100994.19;5095988;27;46291;-48
2021/07/07 08:17:21;;;;;;;;;5.50;5.50;;;;;19.41;55.78;101007.94;5101916;27;45282;-49
2021/07/07 08:19:47;;;;;;;;;5.25;5.25;;;;;19.46;55.95;101008.59;5103336;27;45436;-48
2021/07/07 08:22:13;;;;;;;;;10.50;7.25;;;;;19.51;56.14;101003.91;5102898;27;45467;-47
2021/07/07 08:24:38;;;;;;;;;5.00;4.75;;;;;19.47;56.02;100994.31;5096716;27;45323;-47
2021/07/07 08:27:04;;;;;;;;;5.50;5.00;;;;;19.58;55.70;101009.78;5089126;27;45293;-47
2021/07/07 08:29:29;;;;;;;;;5.25;4.25;;;;;19.65;55.64;101012.09;5103451;27;45387;-47
2021/07/07 08:31:55;;;;;;;;;9.00;7.25;;;;;19.70;56.10;101013.66;5101763;27;45536;-48
2021/07/07 08:34:20;;;;;;;;;6.25;5.50;;;;;19.71;56.00;101012.72;5103327;27;46017;-46
2021/07/07 08:36:46;;;;;;;;;9.25;5.25;;;;;19.80;55.84;101020.31;5102905;27;45292;-50
2021/07/07 08:39:11;;;;;;;;;8.50;6.50;;;;;19.85;55.80;101025.41;5103140;27;45408;-46
2021/07/07 08:41:39;;;;;;;;;7.25;7.25;;;;;19.84;55.63;101016.56;5102859;27;45445;-47
2021/07/07 08:44:06;;;;;;;;;5.50;5.50;;;;;19.89;55.38;101017.19;5103036;27;46209;-45
2021/07/07 08:46:32;;;;;;;;;7.50;7.50;;;;;19.93;55.56;101024.09;5102797;27;45426;-46
2021/07/07 08:48:58;;;;;;;;;7.25;7.00;;;;;20.00;55.73;101027.34;5103240;27;45334;-47
2021/07/07 08:51:23;;;;;;;;;5.75;5.75;;;;;20.06;55.32;101024.41;5097247;27;45413;-46
2021/07/07 08:53:48;;;;;;;;;8.50;5.75;;;;;20.12;55.79;101034.75;5094769;27;46128;-48
2021/07/07 08:56:14;;;;;;;;;7.75;6.00;;;;;20.21;55.36;101029.88;5102625;27;45379;-46
2021/07/07 08:58:39;;;;;;;;;5.75;5.50;;;;;20.22;55.50;101037.81;5102109;27;45354;-48
2021/07/07 09:01:05;;;;;;;;;7.25;6.75;;;;;20.25;55.04;101045.69;5102649;27;45307;-47
2021/07/07 09:03:30;;;;;;;;;8.25;7.00;;;;;20.25;55.33;101031.44;5102734;27;45444;-45
2021/07/07 09:06:03;;;;;;;;;9.00;6.25;;;;;20.28;55.11;101037.50;5084342;27;45421;-48
2021/07/07 09:08:33;;;;;;;;;6.50;6.50;;;;;20.36;55.47;101036.25;5102717;27;45391;-45
2021/07/07 09:11:17;;;;;;;;;14.00;12.00;;;;;20.41;54.77;101043.06;5069005;27;45271;-46
2021/07/07 09:13:44;;;;;;;;;6.00;6.00;;;;;20.39;54.85;101025.41;5098065;27;46025;-46
2021/07/07 09:16:15;;;;;;;;;9.00;5.75;;;;;20.48;54.72;101040.09;5091955;27;45378;-46
2021/07/07 09:18:41;;;;;;;;;4.00;4.00;;;;;20.52;55.00;101037.19;5102510;27;45321;-47
2021/07/07 09:21:31;;;;;;;;;6.50;6.50;;;;;20.61;54.67;101043.88;5102302;27;45485;-45
2021/07/07 09:23:59;;;;;;;;;8.25;6.50;;;;;20.60;54.75;101031.47;5100334;27;46966;-46
2021/07/07 09:26:31;;;;;;;;;9.50;9.50;;;;;20.68;55.13;101042.63;5089225;27;45364;-49
2021/07/07 09:28:57;;;;;;;;;9.50;6.75;;;;;20.73;55.07;101040.59;5088744;27;45341;-48
2021/07/07 09:31:41;;;;;;;;;6.75;6.75;;;;;20.78;54.89;101049.22;5100887;27;45474;-47
2021/07/07 09:34:18;;;;;;;;;8.00;5.50;;;;;20.83;54.47;101037.44;5100863;27;46489;-47
2021/07/07 09:36:46;;;;;;;;;9.00;6.00;;;;;20.91;54.75;101056.59;5101821;27;45485;-46
2021/07/07 09:39:13;;;;;;;;;9.75;9.00;;;;;20.96;54.27;101041.19;5102163;27;45425;-49
2021/07/07 09:41:39;;;;;;;;;7.25;7.25;;;;;21.00;54.35;101042.75;5083377;27;45197;-46
2021/07/07 09:44:06;;;;;;;;;8.75;8.75;;;;;21.08;54.07;101048.56;5101787;27;45298;-48
2021/07/07 09:46:34;;;;;;;;;6.25;6.00;;;;;21.11;54.78;101052.88;5101780;27;45415;-49
2021/07/07 09:49:00;;;;;;;;;6.50;6.25;;;;;21.16;54.22;101039.28;5084006;27;45462;-47
2021/07/07 09:51:25;;;;;;;;;6.50;6.50;;;;;21.23;54.36;101048.66;5101654;27;45630;-47
2021/07/07 09:53:51;;;;;;;;;8.50;7.50;;;;;21.32;54.12;101064.22;5101711;27;45275;-49
2021/07/07 09:56:16;;;;;;;;;8.75;8.75;;;;;21.33;53.85;101046.38;5088049;27;45252;-45
2021/07/07 09:58:42;;;;;;;;;8.00;6.50;;;;;21.40;54.20;101058.44;5101702;27;45162;-49
2021/07/07 10:01:07;;;;;;;;;8.00;6.00;;;;;21.46;54.18;101049.22;5101726;27;45237;-45
2021/07/07 10:03:33;;;;;;;;;8.00;8.00;;;;;21.51;54.28;101050.72;5101802;27;46265;-50
2021/07/07 10:05:59;;;;;;;;;9.25;7.25;;;;;21.58;54.15;101053.91;5101505;27;45318;-46
2021/07/07 10:08:25;;;;;;;;;9.00;7.00;;;;;21.61;54.13;101039.53;5101781;27;45257;-46
2021/07/07 10:10:52;;;;;;;;;8.25;6.50;;;;;21.69;53.16;101046.16;5090494;27;45501;-46
2021/07/07 10:13:18;;;;;;;;;5.75;5.50;;;;;21.68;53.65;101041.75;5101098;27;46547;-47
2021/07/07 10:15:43;;;;;;;;;7.50;5.50;;;;;21.67;53.79;101031.16;5084420;27;45323;-47
2021/07/07 10:18:08;;;;;;;;;7.00;5.75;;;;;21.79;53.89;101045.66;5101765;27;45315;-45
2021/07/07 10:20:35;;;;;;;;;7.25;6.25;;;;;21.86;53.45;101041.66;5101192;27;45329;-46
2021/07/07 10:23:02;;;;;;;;;7.75;7.00;;;;;21.95;53.29;101038.50;5100756;27;45339;-48
2021/07/07 10:25:30;;;;;;;;;6.50;6.50;;;;;22.06;52.96;101043.19;5081180;27;45818;-49
2021/07/07 10:28:00;;;;;;;;;7.25;6.25;;;;;22.12;53.10;101044.66;5092475;27;45288;-46
2021/07/07 10:30:56;;;;;;;;;5.25;5.25;;;;;22.16;52.83;101049.75;5081361;27;45328;-46
2021/07/07 10:33:27;;;;;;;;;8.25;8.25;;;;;22.21;53.24;101054.81;5080656;27;45327;-47
2021/07/07 10:36:13;;;;;;;;;6.00;4.00;;;;;22.28;52.68;101048.19;5080791;28;45468;-49
2021/07/07 10:38:38;;;;;;;;;4.25;4.25;;;;;22.34;52.44;101038.91;5080860;27;45276;-48
2021/07/07 10:41:04;;;;;;;;;6.00;6.00;;;;;22.43;52.20;101038.41;5080763;28;45479;-47
2021/07/07 10:43:44;;;;;;;;;5.50;4.25;;;;;22.48;52.44;101041.66;5080304;28;45374;-49
2021/07/07 10:46:10;;;;;;;;;6.50;6.50;;;;;22.57;52.19;101040.25;5079465;28;45333;-50
2021/07/07 10:48:36;;;;;;;;;8.00;6.00;;;;;22.65;52.47;101035.28;5080854;27;45228;-48
2021/07/07 10:51:26;;;;;;;;;7.50;6.50;;;;;22.80;52.15;101043.34;5080374;28;45390;-48
2021/07/07 10:53:53;;;;;;;;;7.00;6.50;;;;;22.90;52.66;101025.75;5089656;27;46280;-46
2021/07/07 10:56:42;;;;;;;;;6.75;6.25;;;;;23.09;52.39;101027.31;5083373;27;45347;-50
2021/07/07 10:59:36;;;;;;;;;6.50;5.00;;;;;23.29;52.23;101031.44;5079791;28;45385;-49
2021/07/07 11:02:07;;;;;;;;;6.25;5.75;;;;;23.50;52.27;101046.16;5090178;27;45345;-49
2021/07/07 11:04:40;;;;;;;;;8.25;5.50;;;;;23.75;52.31;101036.53;5081911;27;45259;-49
2021/07/07 11:07:41;;;;;;;;;6.50;5.75;;;;;24.05;52.47;101042.69;5079807;28;45394;-50
2021/07/07 11:10:12;;;;;;;;;8.50;7.00;;;;;24.42;52.79;101051.81;5100275;27;45336;-49
2021/07/07 11:12:39;;;;;;;;;8.00;5.50;;;;;24.75;52.23;101055.03;5081501;27;45347;-49
2021/07/07 11:15:08;;;;;;;;;5.75;5.75;;;;;25.09;52.87;101052.66;5084664;27;46334;-49
2021/07/07 11:17:48;;;;;;;;;6.25;6.25;;;;;25.39;52.52;101040.72;5093050;27;45281;-46
2021/07/07 11:20:25;;;;;;;;;5.25;5.25;;;;;25.75;51.63;101049.78;5079463;28;45300;-47
2021/07/07 11:23:11;;;;;;;;;9.25;6.50;;;;;26.06;52.22;101055.59;5079541;28;46310;-50